Time;durP1;ratioP1;P1;durP2;ratioP2;P2;SDS_P1;SDS_P2;PMS_P1;PMS_P2;Temp;Humidity;BMP_temperature;BMP_pressure;BME280_temperature;BME280_humidity;BME280_pressure;Samples;Min_cycle;Max_cycle;Signal;HPM_P1;HPM_P2
2022/10/26 00:02:26;;;;;;;;;;;;;;;13.96;58.07;100375.59;4311524;33;19984;-84
2022/10/26 00:04:53;;;;;;;;;;;;;;;13.91;58.11;100377.31;4311425;33;19987;-85
2022/10/26 00:07:21;;;;;;;;;;;;;;;13.94;57.79;100377.34;4312486;33;19976;-85
2022/10/26 00:09:47;;;;;;;;;;;;;;;14.00;57.76;100373.03;4311872;33;19999;-84
2022/10/26 00:12:14;;;;;;;;;;;;;;;14.11;57.37;100374.03;4312964;33;20782;-85
2022/10/26 00:14:41;;;;;;;;;;;;;;;14.05;57.41;100368.75;4312063;33;19985;-85
2022/10/26 00:17:07;;;;;;;;;;;;;;;13.90;57.79;100380.75;4311159;33;20003;-86
2022/10/26 00:19:34;;;;;;;;;;;;;;;13.92;57.80;100381.62;4297977;33;20000;-85
2022/10/26 00:22:01;;;;;;;;;;;;;;;13.94;57.70;100377.34;4297696;33;19976;-84
2022/10/26 00:24:28;;;;;;;;;;;;;;;13.73;58.23;100384.88;4306246;33;19999;-84
2022/10/26 00:26:55;;;;;;;;;;;;;;;13.65;58.09;100378.69;4304206;33;19984;-85
2022/10/26 00:29:21;;;;;;;;;;;;;;;13.74;58.31;100381.41;4299648;33;20007;-85
2022/10/26 00:31:48;;;;;;;;;;;;;;;13.73;58.09;100382.28;4299013;33;19981;-86
2022/10/26 00:34:15;;;;;;;;;;;;;;;13.83;57.89;100381.53;4305073;33;20713;-83
2022/10/26 00:36:41;;;;;;;;;;;;;;;13.88;57.75;100377.25;4297810;33;19988;-85
2022/10/26 00:39:09;;;;;;;;;;;;;;;14.03;57.36;100380.88;4298905;33;19980;-86
2022/10/26 00:41:36;;;;;;;;;;;;;;;13.93;57.42;100380.78;4303408;33;19988;-86
2022/10/26 00:44:21;;;;;;;;;;;;;;;14.01;57.08;100379.97;4301003;33;20342;-81
2022/10/26 00:46:48;;;;;;;;;;;;;;;14.01;56.98;100366.97;4298493;33;19987;-80
2022/10/26 00:49:15;;;;;;;;;;;;;;;13.82;57.54;100366.78;4301367;33;19996;-83
2022/10/26 00:51:43;;;;;;;;;;;;;;;13.71;57.76;100373.56;4300875;33;20282;-85
2022/10/26 00:54:13;;;;;;;;;;;;;;;13.56;58.00;100370.78;4308347;33;19999;-85
2022/10/26 00:56:39;;;;;;;;;;;;;;;13.56;58.03;100373.38;4297831;33;19981;-84
2022/10/26 00:59:07;;;;;;;;;;;;;;;13.65;57.89;100368.28;4316606;33;19989;-84
2022/10/26 01:01:34;;;;;;;;;;;;;;;13.55;58.23;100376.84;4298540;33;19989;-84
2022/10/26 01:04:01;;;;;;;;;;;;;;;13.63;57.85;100364.81;4303567;33;20383;-85
2022/10/26 01:06:28;;;;;;;;;;;;;;;13.45;58.66;100363.72;4298922;33;20288;-85
2022/10/26 01:08:55;;;;;;;;;;;;;;;13.32;58.93;100368.75;4303774;33;19996;-85
2022/10/26 01:11:22;;;;;;;;;;;;;;;13.36;58.45;100367.94;4298296;33;19992;-85
2022/10/26 01:13:49;;;;;;;;;;;;;;;13.38;58.33;100368.84;4302944;33;19984;-82
2022/10/26 01:16:23;;;;;;;;;;;;;;;13.53;58.11;100369.03;4309905;33;20433;-84
2022/10/26 01:19:12;;;;;;;;;;;;;;;13.60;58.08;100370.00;4304320;33;20006;-84
2022/10/26 01:21:40;;;;;;;;;;;;;;;13.45;58.17;100371.53;4310738;33;20006;-84
2022/10/26 01:24:33;;;;;;;;;;;;;;;13.57;58.01;100370.81;4310787;33;19984;-83
2022/10/26 01:27:00;;;;;;;;;;;;;;;13.31;59.08;100362.69;4306159;33;19976;-85
2022/10/26 01:29:41;;;;;;;;;;;;;;;13.47;58.40;100372.44;4302115;33;19985;-86
2022/10/26 01:32:29;;;;;;;;;;;;;;;13.57;58.06;100363.00;4300526;33;19991;-85
2022/10/26 01:34:58;;;;;;;;;;;;;;;13.44;58.34;100363.72;4306313;33;20070;-86
2022/10/26 01:37:26;;;;;;;;;;;;;;;13.45;58.31;100366.31;4298249;33;20001;-86
2022/10/26 01:39:54;;;;;;;;;;;;;;;13.20;58.85;100369.41;4303060;33;19985;-85
2022/10/26 01:42:20;;;;;;;;;;;;;;;13.45;58.06;100363.72;4308610;33;19992;-84
2022/10/26 01:44:48;;;;;;;;;;;;;;;13.39;58.21;100360.19;4289428;33;19980;-85
2022/10/26 01:47:15;;;;;;;;;;;;;;;13.30;58.10;100366.13;4306534;33;20337;-82
2022/10/26 01:49:43;;;;;;;;;;;;;;;13.38;58.08;100364.50;4312712;33;20773;-84
2022/10/26 01:52:10;;;;;;;;;;;;;;;13.10;58.70;100358.03;4307953;33;19996;-85
2022/10/26 01:54:37;;;;;;;;;;;;;;;13.15;58.76;100355.50;4298300;33;20019;-84
2022/10/26 01:57:05;;;;;;;;;;;;;;;13.31;58.35;100354.88;4304490;33;19988;-84
2022/10/26 01:59:41;;;;;;;;;;;;;;;13.33;58.26;100355.75;4308697;33;20429;-86
2022/10/26 02:02:11;;;;;;;;;;;;;;;13.29;58.17;100353.97;4306811;33;20326;-84
2022/10/26 02:04:45;;;;;;;;;;;;;;;13.26;58.39;100348.75;4297179;33;19981;-85
2022/10/26 02:07:12;;;;;;;;;;;;;;;13.19;58.71;100357.28;4315841;33;19991;-85
2022/10/26 02:09:59;;;;;;;;;;;;;;;13.26;58.26;100359.13;4297513;33;19995;-86
2022/10/26 02:12:41;;;;;;;;;;;;;;;13.16;58.56;100352.03;4310036;33;19996;-82
2022/10/26 02:15:11;;;;;;;;;;;;;;;13.42;57.68;100345.47;4303622;33;20085;-85
2022/10/26 02:17:45;;;;;;;;;;;;;;;13.30;58.36;100345.31;4309787;33;19984;-83
2022/10/26 02:20:14;;;;;;;;;;;;;;;13.32;57.96;100342.75;4314315;33;20012;-86
2022/10/26 02:22:44;;;;;;;;;;;;;;;13.36;57.62;100342.81;4307734;33;19989;-83
2022/10/26 02:25:13;;;;;;;;;;;;;;;13.02;58.79;100350.13;4308902;33;19999;-84
2022/10/26 02:27:41;;;;;;;;;;;;;;;12.96;59.17;100350.03;4315191;33;19999;-84
2022/10/26 02:30:07;;;;;;;;;;;;;;;13.16;58.16;100341.66;3714408;33;10010777;-84
2022/10/26 02:32:35;;;;;;;;;;;;;;;13.22;57.97;100349.53;4163667;33;5003288;-84
2022/10/26 02:35:02;;;;;;;;;;;;;;;13.30;57.85;100345.31;4311550;33;19996;-85
2022/10/26 02:37:31;;;;;;;;;;;;;;;13.10;58.34;100347.62;4288028;33;19972;-85
2022/10/26 02:39:57;;;;;;;;;;;;;;;13.15;58.30;100355.50;4310171;33;19980;-85
2022/10/26 02:42:24;;;;;;;;;;;;;;;12.98;58.50;100358.72;4311632;33;19983;-85
2022/10/26 02:44:56;;;;;;;;;;;;;;;13.17;57.91;100358.97;4309992;33;19996;-85
2022/10/26 02:47:23;;;;;;;;;;;;;;;13.22;57.79;100363.41;4318832;33;20003;-80
2022/10/26 02:49:50;;;;;;;;;;;;;;;13.21;57.75;100366.00;4310942;33;19996;-86
2022/10/26 02:52:21;;;;;;;;;;;;;;;12.96;58.65;100370.81;4316708;33;19976;-85
2022/10/26 02:54:59;;;;;;;;;;;;;;;13.10;58.23;100367.53;4310215;33;20003;-83
2022/10/26 02:57:29;;;;;;;;;;;;;;;13.07;57.98;100373.56;4318249;33;20356;-85
2022/10/26 02:59:56;;;;;;;;;;;;;;;13.08;58.05;100374.44;4311145;33;20059;-81
2022/10/26 03:02:23;;;;;;;;;;;;;;;13.26;57.42;100379.94;4310077;33;19987;-86
2022/10/26 03:04:50;;;;;;;;;;;;;;;12.68;59.40;100371.25;4315282;33;20007;-86
2022/10/26 03:07:20;;;;;;;;;;;;;;;12.82;59.17;100377.53;4313523;33;20027;-87
2022/10/26 03:09:47;;;;;;;;;;;;;;;12.99;58.34;100376.06;4311175;33;20003;-85
2022/10/26 03:12:14;;;;;;;;;;;;;;;12.95;58.23;100374.25;4312671;33;19992;-85
2022/10/26 03:14:40;;;;;;;;;;;;;;;12.87;58.59;100377.59;4316934;33;19980;-86
2022/10/26 03:17:07;;;;;;;;;;;;;;;12.76;59.06;100380.91;4311315;33;19979;-85
2022/10/26 03:19:34;;;;;;;;;;;;;;;12.86;58.80;100379.34;4310706;33;19980;-85
2022/10/26 03:22:01;;;;;;;;;;;;;;;13.03;57.93;100377.84;4312600;33;20254;-85
2022/10/26 03:24:27;;;;;;;;;;;;;;;13.19;57.54;100383.28;4317495;33;20366;-84
2022/10/26 03:26:54;;;;;;;;;;;;;;;13.06;58.19;100387.44;4314002;33;19976;-84
2022/10/26 03:29:26;;;;;;;;;;;;;;;13.18;57.70;100381.53;4320915;33;20008;-83
2022/10/26 03:31:54;;;;;;;;;;;;;;;13.26;57.62;100379.94;4317010;33;19984;-84
2022/10/26 03:34:22;;;;;;;;;;;;;;;13.25;57.81;100397.28;3607441;33;10010913;-85
2022/10/26 03:36:49;;;;;;;;;;;;;;;12.99;58.56;100390.78;4316749;33;20006;-86
2022/10/26 03:39:15;;;;;;;;;;;;;;;13.13;58.45;100393.59;4314684;33;19968;-85
2022/10/26 03:41:43;;;;;;;;;;;;;;;13.25;58.34;100391.19;4323702;33;20356;-85
2022/10/26 03:44:09;;;;;;;;;;;;;;;13.37;57.81;100393.97;4327627;33;20040;-83
2022/10/26 03:46:36;;;;;;;;;;;;;;;13.26;58.17;100390.34;4327233;33;19997;-83
2022/10/26 03:49:03;;;;;;;;;;;;;;;13.28;58.32;100392.97;4322642;33;20045;-84
2022/10/26 03:51:30;;;;;;;;;;;;;;;13.29;58.34;100394.72;4314518;33;19984;-84
2022/10/26 03:53:57;;;;;;;;;;;;;;;13.28;58.36;100393.84;4319897;33;19992;-84
2022/10/26 03:56:24;;;;;;;;;;;;;;;13.32;57.92;100395.63;4311090;33;20006;-84
2022/10/26 03:58:50;;;;;;;;;;;;;;;13.29;58.09;100395.59;4319585;33;20022;-85
2022/10/26 04:01:17;;;;;;;;;;;;;;;13.34;57.86;100398.25;4313027;33;19985;-85
2022/10/26 04:03:44;;;;;;;;;;;;;;;13.34;57.67;100401.72;4320175;33;19979;-84
2022/10/26 04:06:11;;;;;;;;;;;;;;;13.30;57.88;100401.66;4312650;33;19988;-83
2022/10/26 04:08:38;;;;;;;;;;;;;;;13.45;57.84;100402.72;4312624;33;20003;-84
2022/10/26 04:11:05;;;;;;;;;;;;;;;13.25;58.70;100404.19;4310097;33;20524;-83
2022/10/26 04:13:32;;;;;;;;;;;;;;;13.26;58.69;100411.13;4318907;33;19984;-84
2022/10/26 04:15:58;;;;;;;;;;;;;;;13.27;58.57;100407.66;4319850;33;20293;-84
2022/10/26 04:18:25;;;;;;;;;;;;;;;13.33;58.45;100407.75;4322557;33;19983;-84
2022/10/26 04:20:52;;;;;;;;;;;;;;;13.34;58.69;100404.34;4313165;33;19991;-86
2022/10/26 04:23:18;;;;;;;;;;;;;;;13.48;58.39;100397.56;4312385;33;20023;-84
2022/10/26 04:25:46;;;;;;;;;;;;;;;13.53;58.55;100391.56;4315877;33;19980;-84
2022/10/26 04:28:12;;;;;;;;;;;;;;;13.46;59.06;100394.09;4319541;33;19976;-85
2022/10/26 04:30:39;;;;;;;;;;;;;;;13.46;59.09;100399.31;4318822;33;19980;-85
2022/10/26 04:33:06;;;;;;;;;;;;;;;13.53;58.97;100392.44;4300974;33;20421;-83
2022/10/26 04:35:33;;;;;;;;;;;;;;;13.45;59.26;100391.47;4302927;33;19999;-83
2022/10/26 04:38:01;;;;;;;;;;;;;;;13.45;59.20;100392.34;4304085;33;20020;-84
2022/10/26 04:40:28;;;;;;;;;;;;;;;13.48;59.07;100381.97;4302496;33;20385;-81
2022/10/26 04:42:55;;;;;;;;;;;;;;;13.53;59.03;100379.44;4302672;33;20040;-86
2022/10/26 04:45:22;;;;;;;;;;;;;;;13.56;59.19;100378.59;4296892;33;20028;-87
2022/10/26 04:47:59;;;;;;;;;;;;;;;13.45;59.37;100386.25;4301697;33;19988;-84
2022/10/26 04:50:26;;;;;;;;;;;;;;;13.55;59.34;100387.25;4311774;33;19975;-82
2022/10/26 04:52:54;;;;;;;;;;;;;;;13.55;59.59;100387.25;4310812;33;20311;-85
2022/10/26 04:55:21;;;;;;;;;;;;;;;13.59;59.61;100394.22;4312626;33;20062;-86
2022/10/26 04:57:48;;;;;;;;;;;;;;;13.60;59.55;100388.19;4298963;33;19988;-85
2022/10/26 05:00:15;;;;;;;;;;;;;;;13.68;59.22;100386.53;4280453;33;20579;-85
2022/10/26 05:02:42;;;;;;;;;;;;;;;13.54;59.47;100380.31;4302223;33;20402;-86
2022/10/26 05:05:09;;;;;;;;;;;;;;;13.58;59.02;100388.16;4300240;33;19980;-83
2022/10/26 05:07:40;;;;;;;;;;;;;;;13.56;58.93;100378.59;4298260;33;20039;-83
2022/10/26 05:10:08;;;;;;;;;;;;;;;13.38;59.57;100380.09;4302974;33;20366;-83
2022/10/26 05:12:34;;;;;;;;;;;;;;;13.54;59.04;100395.91;4297138;33;20365;-83
2022/10/26 05:15:02;;;;;;;;;;;;;;;13.58;58.65;100382.97;4301830;33;19998;-86
2022/10/26 05:17:34;;;;;;;;;;;;;;;13.43;58.87;100388.84;4297322;33;19981;-86
2022/10/26 05:20:04;;;;;;;;;;;;;;;13.58;58.52;100392.50;4297392;33;20007;-87
2022/10/26 05:22:31;;;;;;;;;;;;;;;13.43;59.14;100394.06;4294604;33;19992;-86
2022/10/26 05:24:58;;;;;;;;;;;;;;;13.32;59.40;100403.44;4305703;33;20446;-86
2022/10/26 05:27:25;;;;;;;;;;;;;;;13.37;59.01;100408.69;4301791;33;19988;-86
2022/10/26 05:29:52;;;;;;;;;;;;;;;13.41;58.50;100413.97;4309237;33;19988;-86
2022/10/26 05:32:18;;;;;;;;;;;;;;;13.33;58.78;100407.75;4303861;33;19992;-81
2022/10/26 05:34:45;;;;;;;;;;;;;;;13.29;59.12;100416.37;4297207;33;20007;-83
2022/10/26 05:37:12;;;;;;;;;;;;;;;13.28;59.17;100414.66;4300288;33;19988;-82
2022/10/26 05:39:39;;;;;;;;;;;;;;;13.26;58.99;100411.13;4302358;33;20327;-83
2022/10/26 05:42:06;;;;;;;;;;;;;;;13.24;58.86;100408.53;4295752;33;20014;-84
2022/10/26 05:44:33;;;;;;;;;;;;;;;13.31;58.79;100419.87;4308543;33;19984;-83
2022/10/26 05:47:00;;;;;;;;;;;;;;;13.15;59.27;100423.09;4311478;33;19980;-84
2022/10/26 05:49:26;;;;;;;;;;;;;;;13.19;59.45;100427.47;4321870;33;19992;-84
2022/10/26 05:51:53;;;;;;;;;;;;;;;13.27;59.17;100423.28;4311450;33;19984;-85
2022/10/26 05:54:20;;;;;;;;;;;;;;;13.37;58.81;100417.38;4310173;33;20008;-85
2022/10/26 05:56:47;;;;;;;;;;;;;;;12.99;60.38;100427.19;4297631;33;19988;-86
2022/10/26 05:59:15;;;;;;;;;;;;;;;13.28;59.60;100429.38;4305459;33;20023;-85
2022/10/26 06:01:53;;;;;;;;;;;;;;;13.31;59.63;100432.88;4297496;33;20003;-87
2022/10/26 06:04:24;;;;;;;;;;;;;;;13.44;59.35;100432.22;4295576;33;19992;-86
2022/10/26 06:06:52;;;;;;;;;;;;;;;13.33;60.15;100435.50;4297944;33;20527;-85
2022/10/26 06:09:19;;;;;;;;;;;;;;;13.37;60.27;100435.56;4303358;33;20271;-88
2022/10/26 06:11:46;;;;;;;;;;;;;;;13.29;60.89;100441.50;4306888;33;19996;-86
2022/10/26 06:14:13;;;;;;;;;;;;;;;13.51;60.40;100447.91;4303201;33;19984;-87
2022/10/26 06:16:44;;;;;;;;;;;;;;;13.45;60.85;100444.34;4296924;33;20036;-89
2022/10/26 06:19:23;;;;;;;;;;;;;;;13.31;61.66;100456.28;4315396;33;19994;-84
2022/10/26 06:21:54;;;;;;;;;;;;;;;13.58;60.96;100455.78;4307616;33;19997;-87
2022/10/26 06:24:36;;;;;;;;;;;;;;;13.73;60.85;100455.13;4310214;33;20463;-86
2022/10/26 06:27:35;;;;;;;;;;;;;;;13.76;61.36;100460.37;4304755;33;20346;-88
2022/10/26 06:30:04;;;;;;;;;;;;;;;13.90;61.08;100458.81;4286548;33;19990;-88
2022/10/26 06:32:31;;;;;;;;;;;;;;;13.98;61.22;100460.66;4310070;33;20451;-88
2022/10/26 06:35:11;;;;;;;;;;;;;;;14.15;60.74;100464.31;4297520;33;19993;-82
2022/10/26 06:37:38;;;;;;;;;;;;;;;14.07;61.51;100465.94;4304822;33;20516;-85
2022/10/26 06:40:05;;;;;;;;;;;;;;;14.11;61.76;100459.94;4311826;33;20029;-83
2022/10/26 06:42:32;;;;;;;;;;;;;;;14.26;61.77;100461.81;4310766;33;19988;-83
2022/10/26 06:44:59;;;;;;;;;;;;;;;14.34;61.87;100466.28;3715430;33;10010274;-83
2022/10/26 06:47:30;;;;;;;;;;;;;;;14.39;62.03;100467.22;4321316;33;19976;-85
2022/10/26 06:50:17;;;;;;;;;;;;;;;14.39;62.17;100464.59;4310368;33;20126;-83
2022/10/26 06:52:45;;;;;;;;;;;;;;;14.49;62.13;100467.31;4297528;33;19987;-85
2022/10/26 06:55:13;;;;;;;;;;;;;;;14.66;62.02;100463.16;4294540;33;20046;-84
2022/10/26 06:57:40;;;;;;;;;;;;;;;14.83;61.99;100469.38;4296146;33;20086;-85
2022/10/26 07:00:13;;;;;;;;;;;;;;;15.11;61.22;100462.66;4306487;33;20507;-83
2022/10/26 07:02:39;;;;;;;;;;;;;;;15.20;61.22;100463.59;4306754;33;19976;-78
2022/10/26 07:05:11;;;;;;;;;;;;;;;15.46;60.26;100474.22;4314372;33;20274;-78
2022/10/26 07:07:41;;;;;;;;;;;;;;;15.58;60.05;100469.06;4296653;33;19985;-84
2022/10/26 07:10:09;;;;;;;;;;;;;;;15.63;59.73;100471.69;4296302;33;19997;-83
2022/10/26 07:12:36;;;;;;;;;;;;;;;15.54;60.00;100467.31;4313598;33;20452;-85
2022/10/26 07:15:03;;;;;;;;;;;;;;;15.58;59.95;100464.72;4296916;33;20040;-80
2022/10/26 07:17:30;;;;;;;;;;;;;;;15.75;59.54;100472.66;4296835;33;19992;-80
2022/10/26 07:19:57;;;;;;;;;;;;;;;15.85;59.53;100468.38;4297899;33;20040;-82
2022/10/26 07:22:24;;;;;;;;;;;;;;;15.84;59.68;100471.84;4297944;33;19988;-84
2022/10/26 07:24:52;;;;;;;;;;;;;;;15.98;59.70;100471.91;4296982;33;19981;-87
2022/10/26 07:27:18;;;;;;;;;;;;;;;16.08;59.92;100475.41;4305187;33;19996;-89
2022/10/26 07:29:49;;;;;;;;;;;;;;;16.20;60.01;100473.72;4092376;33;10000258;-91
2022/10/26 07:32:16;;;;;;;;;;;;;;;16.17;60.32;100480.69;4303529;33;19984;-89
2022/10/26 07:34:42;;;;;;;;;;;;;;;16.27;60.12;100485.97;4305781;33;20330;-88
2022/10/26 07:37:09;;;;;;;;;;;;;;;16.34;60.99;100484.25;4296195;33;20006;-88
2022/10/26 07:39:36;;;;;;;;;;;;;;;16.59;60.27;100485.16;4297992;33;19992;-85
2022/10/26 07:42:03;;;;;;;;;;;;;;;16.77;59.54;100475.62;4303740;33;19998;-84
2022/10/26 07:44:32;;;;;;;;;;;;;;;16.94;59.53;100476.50;4299627;33;19984;-86
2022/10/26 07:46:59;;;;;;;;;;;;;;;17.25;59.17;100481.75;4299123;33;19984;-93
2022/10/26 07:49:27;;;;;;;;;;;;;;;17.46;58.64;100486.94;4327373;33;20006;-86
2022/10/26 07:51:54;;;;;;;;;;;;;;;17.63;58.58;100479.91;4327117;33;19988;-86
2022/10/26 07:54:21;;;;;;;;;;;;;;;17.85;57.89;100472.03;4328658;33;19976;-86
2022/10/26 07:56:48;;;;;;;;;;;;;;;18.20;56.71;100474.50;4333812;33;20026;-88
2022/10/26 07:59:15;;;;;;;;;;;;;;;18.43;55.84;100474.37;4327116;33;20300;-88
2022/10/26 08:01:43;;;;;;;;;;;;;;;18.46;55.88;100474.37;4327411;33;20727;-85
2022/10/26 08:04:09;;;;;;;;;;;;;;;18.66;55.67;100466.34;4319655;33;20451;-89
2022/10/26 08:06:36;;;;;;;;;;;;;;;18.96;55.53;100467.94;4326967;33;20005;-85
2022/10/26 08:09:03;;;;;;;;;;;;;;;19.25;55.45;100470.28;4333503;33;19991;-90
2022/10/26 08:11:30;;;;;;;;;;;;;;;19.41;55.35;100468.38;4325853;33;19971;-83
2022/10/26 08:13:57;;;;;;;;;;;;;;;19.32;54.58;100468.47;4325373;33;19983;-82
2022/10/26 08:16:23;;;;;;;;;;;;;;;19.40;55.44;100471.91;4334221;33;20596;-84
2022/10/26 08:18:50;;;;;;;;;;;;;;;19.43;55.86;100482.38;4327526;33;20007;-85
2022/10/26 08:21:17;;;;;;;;;;;;;;;19.92;54.67;100487.13;4326924;33;19983;-87
2022/10/26 08:23:56;;;;;;;;;;;;;;;19.74;56.09;100484.69;4324936;33;19988;-84
2022/10/26 08:26:22;;;;;;;;;;;;;;;19.66;56.09;100483.94;4329499;33;20027;-85
2022/10/26 08:28:49;;;;;;;;;;;;;;;19.77;55.36;100481.19;4330433;33;19988;-86
2022/10/26 08:31:16;;;;;;;;;;;;;;;19.98;54.81;100479.16;4327999;33;19976;-86
2022/10/26 08:33:43;;;;;;;;;;;;;;;19.99;54.36;100477.41;4334821;33;19991;-82
2022/10/26 08:36:11;;;;;;;;;;;;;;;19.91;54.68;100474.87;4330036;33;20661;-82
2022/10/26 08:38:38;;;;;;;;;;;;;;;19.64;54.91;100476.06;4332147;33;19983;-82
2022/10/26 08:41:05;;;;;;;;;;;;;;;19.64;55.86;100480.44;4332910;33;19980;-84
2022/10/26 08:43:35;;;;;;;;;;;;;;;19.69;55.57;100483.91;4326615;33;20071;-83
2022/10/26 08:46:09;;;;;;;;;;;;;;;20.20;54.43;100474.50;4325472;33;20011;-82
2022/10/26 08:48:37;;;;;;;;;;;;;;;19.83;55.24;100487.22;4331326;33;19987;-88
2022/10/26 08:51:09;;;;;;;;;;;;;;;19.87;56.33;100493.31;4326878;33;19994;-88
2022/10/26 08:53:37;;;;;;;;;;;;;;;19.01;58.65;100505.47;4313779;33;19984;-88
2022/10/26 08:56:15;;;;;;;;;;;;;;;18.63;59.89;100507.47;4325079;33;19992;-84
2022/10/26 08:59:01;;;;;;;;;;;;;;;18.98;59.13;100510.75;4325080;33;20011;-89
2022/10/26 09:01:32;;;;;;;;;;;;;;;18.96;59.23;100512.53;4325958;33;19990;-86
2022/10/26 09:04:00;;;;;;;;;;;;;;;19.34;58.17;100503.47;4325043;33;20318;-85
2022/10/26 09:06:38;;;;;;;;;;;;;;;19.23;58.50;100511.44;4331883;33;19979;-88
2022/10/26 09:09:06;;;;;;;;;;;;;;;18.81;59.63;100503.00;4336565;33;19987;-90
2022/10/26 09:11:42;;;;;;;;;;;;;;;18.63;60.01;100507.47;4338384;33;19988;-83
2022/10/26 09:14:27;;;;;;;;;;;;;;;18.90;59.25;100507.31;4332217;33;19998;-88
2022/10/26 09:17:00;;;;;;;;;;;;;;;18.38;61.36;100507.63;4326496;33;19988;-85
2022/10/26 09:19:30;;;;;;;;;;;;;;;18.57;60.53;100513.66;4332731;33;20019;-85
2022/10/26 09:22:01;;;;;;;;;;;;;;;18.59;60.58;100507.50;4325823;33;19984;-85
2022/10/26 09:24:30;;;;;;;;;;;;;;;18.68;61.03;100508.31;4325889;33;20027;-85
2022/10/26 09:27:03;;;;;;;;;;;;;;;18.82;61.27;100514.38;4331441;33;20080;-85
2022/10/26 09:29:39;;;;;;;;;;;;;;;19.30;59.87;100522.75;4326142;33;20718;-84
2022/10/26 09:32:17;;;;;;;;;;;;;;;19.43;58.82;100518.25;4324701;33;20353;-86
2022/10/26 09:34:45;;;;;;;;;;;;;;;19.45;58.95;100522.59;4330417;33;19980;-79
2022/10/26 09:37:15;;;;;;;;;;;;;;;19.77;58.80;100524.06;4328622;33;20051;-86
2022/10/26 09:39:44;;;;;;;;;;;;;;;19.62;58.29;100518.94;4325513;33;19979;-80
2022/10/26 09:42:14;;;;;;;;;;;;;;;19.95;58.92;100521.25;4324571;33;19984;-83
2022/10/26 09:44:46;;;;;;;;;;;;;;;20.05;57.52;100514.13;4330280;33;20006;-86
2022/10/26 09:47:26;;;;;;;;;;;;;;;20.13;57.02;100517.56;4328413;33;20047;-81
2022/10/26 09:49:54;;;;;;;;;;;;;;;19.62;58.00;100519.84;4327553;33;20007;-82
2022/10/26 09:52:21;;;;;;;;;;;;;;;19.71;57.49;100529.41;4335063;33;19987;-85
2022/10/26 09:54:47;;;;;;;;;;;;;;;19.60;57.33;100520.72;4324798;33;19987;-86
2022/10/26 09:57:15;;;;;;;;;;;;;;;19.23;58.39;100536.81;4324275;32;19996;-85
2022/10/26 09:59:41;;;;;;;;;;;;;;;19.60;57.38;100536.50;4332436;33;19983;-87
2022/10/26 10:02:27;;;;;;;;;;;;;;;19.63;57.06;100531.22;4337941;33;20047;-87
2022/10/26 10:04:54;;;;;;;;;;;;;;;19.43;58.08;100537.53;4330778;33;19999;-85
2022/10/26 10:07:21;;;;;;;;;;;;;;;18.74;60.87;100537.16;4332414;33;19979;-84
2022/10/26 10:10:07;;;;;;;;;;;;;;;18.98;60.01;100526.50;4324785;33;19994;-85
2022/10/26 10:12:34;;;;;;;;;;;;;;;18.98;59.27;100539.59;4327643;33;20095;-93
2022/10/26 10:15:01;;;;;;;;;;;;;;;19.02;58.74;100530.00;4338176;33;20013;-91
2022/10/26 10:17:28;;;;;;;;;;;;;;;18.93;58.99;100533.53;4338398;33;19983;-88
2022/10/26 10:19:58;;;;;;;;;;;;;;;19.22;58.91;100540.31;4306900;33;19988;-89
2022/10/26 10:22:34;;;;;;;;;;;;;;;19.15;58.72;100536.00;4299976;33;19984;-88
2022/10/26 10:25:21;;;;;;;;;;;;;;;19.11;59.41;100542.16;4297985;33;20016;-87
2022/10/26 10:27:52;;;;;;;;;;;;;;;19.11;59.35;100542.16;4294554;33;20000;-87
2022/10/26 10:30:24;;;;;;;;;;;;;;;18.73;60.02;100535.41;4298108;33;20003;-91
2022/10/26 10:33:07;;;;;;;;;;;;;;;19.03;59.12;100529.97;4283417;33;20003;-85
2022/10/26 10:35:34;;;;;;;;;;;;;;;18.84;60.15;100538.84;4296357;33;19988;-84
2022/10/26 10:38:01;;;;;;;;;;;;;;;18.91;59.83;100540.53;4283468;33;20525;-83
2022/10/26 10:40:30;;;;;;;;;;;;;;;18.45;61.58;100534.69;4304673;33;20007;-87
2022/10/26 10:43:23;;;;;;;;;;;;;;;18.42;61.88;100530.31;4297131;33;20382;-87
2022/10/26 10:45:51;;;;;;;;;;;;;;;18.46;61.17;100526.78;4297668;33;19988;-89
2022/10/26 10:48:28;;;;;;;;;;;;;;;18.95;59.44;100526.53;4305804;33;20004;-87
2022/10/26 10:50:58;;;;;;;;;;;;;;;19.27;58.58;100520.12;4295358;33;19996;-83
2022/10/26 10:53:29;;;;;;;;;;;;;;;19.07;59.72;100520.31;4301100;33;19985;-89
2022/10/26 10:55:59;;;;;;;;;;;;;;;19.16;59.24;100524.63;4303400;33;19995;-87
2022/10/26 10:58:32;;;;;;;;;;;;;;;18.78;60.89;100524.00;4311131;33;20303;-87
2022/10/26 11:00:59;;;;;;;;;;;;;;;18.84;60.78;100523.09;4309228;33;20401;-86
2022/10/26 11:03:29;;;;;;;;;;;;;;;18.76;60.68;100519.66;4310879;33;19976;-87
2022/10/26 11:05:58;;;;;;;;;;;;;;;19.08;60.16;100521.19;4310674;33;20006;-84
2022/10/26 11:08:28;;;;;;;;;;;;;;;18.84;61.19;100515.25;4310108;33;19984;-86
2022/10/26 11:11:06;;;;;;;;;;;;;;;19.07;60.78;100514.19;4303720;33;19994;-87
2022/10/26 11:13:34;;;;;;;;;;;;;;;19.01;60.41;100515.09;4301602;33;20274;-86
2022/10/26 11:16:02;;;;;;;;;;;;;;;19.20;59.93;100514.06;4300085;33;20003;-89
2022/10/26 11:18:30;;;;;;;;;;;;;;;19.47;58.85;100499.84;4331588;33;20052;-89
2022/10/26 11:21:17;;;;;;;;;;;;;;;19.40;59.27;100498.16;4325378;33;20007;-89
2022/10/26 11:23:49;;;;;;;;;;;;;;;19.41;59.63;100505.16;4306340;33;793894;-89
2022/10/26 11:26:17;;;;;;;;;;;;;;;19.13;60.47;100509.78;4325577;33;20019;-88
2022/10/26 11:29:13;;;;;;;;;;;;;;;19.11;60.52;100511.53;4323573;33;19995;-87
2022/10/26 11:31:48;;;;;;;;;;;;;;;18.93;60.45;100512.56;4328946;33;20409;-89
2022/10/26 11:34:26;;;;;;;;;;;;;;;18.96;61.33;100496.78;4331642;33;19998;-88
2022/10/26 11:37:16;;;;;;;;;;;;;;;18.93;61.30;100496.81;4332399;33;20534;-88
2022/10/26 11:39:44;;;;;;;;;;;;;;;19.37;60.12;100492.94;4320866;33;20007;-87
2022/10/26 11:42:29;;;;;;;;;;;;;;;19.07;60.91;100493.19;4323696;33;20039;-88
2022/10/26 11:44:56;;;;;;;;;;;;;;;19.36;60.12;100485.94;4331294;33;20007;-88
2022/10/26 11:47:34;;;;;;;;;;;;;;;19.58;59.11;100485.72;4326258;33;20417;-88
2022/10/26 11:50:07;;;;;;;;;;;;;;;19.64;59.29;100488.31;4324483;33;19990;-87
2022/10/26 11:52:40;;;;;;;;;;;;;;;19.77;58.78;100484.66;4336539;33;20003;-85
2022/10/26 11:55:08;;;;;;;;;;;;;;;20.14;58.38;100492.13;4321905;32;19984;-86
2022/10/26 11:57:34;;;;;;;;;;;;;;;19.90;59.06;100488.88;4290299;33;20052;-85
2022/10/26 12:00:22;;;;;;;;;;;;;;;20.03;59.46;100494.00;4306067;33;20039;-86
2022/10/26 12:02:51;;;;;;;;;;;;;;;19.67;60.36;100490.91;4307748;33;19988;-85
2022/10/26 12:05:19;;;;;;;;;;;;;;;20.32;57.79;100486.59;4314479;33;20016;-86
2022/10/26 12:07:57;;;;;;;;;;;;;;;20.30;57.49;100483.16;4315932;33;19989;-87
2022/10/26 12:10:29;;;;;;;;;;;;;;;20.47;57.40;100485.53;4291208;33;20009;-87
2022/10/26 12:13:00;;;;;;;;;;;;;;;20.26;58.49;100481.47;4319879;33;20004;-81
2022/10/26 12:15:52;;;;;;;;;;;;;;;20.54;57.28;100486.34;4318407;33;20015;-88
2022/10/26 12:18:38;;;;;;;;;;;;;;;20.04;58.92;100487.84;4317940;33;19991;-88
2022/10/26 12:21:23;;;;;;;;;;;;;;;19.96;58.94;100488.81;4314563;33;20018;-88
2022/10/26 12:23:58;;;;;;;;;;;;;;;20.21;57.42;100488.53;4317165;33;20740;-89
2022/10/26 12:26:33;;;;;;;;;;;;;;;20.14;58.13;100482.47;4314061;33;19980;-88
2022/10/26 12:29:00;;;;;;;;;;;;;;;20.25;58.64;100484.09;4318377;33;20966;-87
2022/10/26 12:31:36;;;;;;;;;;;;;;;20.00;58.58;100494.03;4319643;33;19992;-87
2022/10/26 12:34:04;;;;;;;;;;;;;;;20.24;58.19;100491.13;4315742;33;19984;-85
2022/10/26 12:36:50;;;;;;;;;;;;;;;20.56;56.82;100489.84;4318029;33;19984;-88
2022/10/26 12:39:35;;;;;;;;;;;;;;;20.42;57.28;100482.97;4319723;33;20039;-86
2022/10/26 12:42:08;;;;;;;;;;;;;;;20.49;57.47;100482.91;4318583;33;19980;-87
2022/10/26 12:44:40;;;;;;;;;;;;;;;20.64;57.32;100480.06;4302660;33;20255;-85
2022/10/26 12:47:08;;;;;;;;;;;;;;;20.37;57.84;100479.53;4316277;33;20008;-86
2022/10/26 12:49:54;;;;;;;;;;;;;;;20.62;57.13;100473.97;4316899;33;19984;-86
2022/10/26 12:52:24;;;;;;;;;;;;;;;20.61;57.12;100472.22;4319611;33;19999;-87